• Join FlightAware (Why Join?)
  • Login
  • US Flag 
03:31AM EDT


 

Airport Tracker/Info


-or-


 

Live Flight TrackerFlight Track Log ✈ GJS3706 ✈ 30-Jun-2013 ✈ KALB - KORD

Flight Track Log - Related Links

Times and Time Zones

All times are in EDT time to prevent confusion due to time zone crossing. See the GJS3706 flight status page for this flight to view local times or setup timezone preferences in your user account.

Time Position Orientation Groundspeed Altitude Reporting Facility
EDT Latitude Longitude Course Direction KTS MPH feet Rate Location/Type
12:05PM 42.6975 -73.8950 250° West 253 291 3,100  Level Boston Center
12:07PM 43.0104 -74.0930 279° West  Level FlightAware Approximate
12:07PM 42.7083 -74.0225 277° West 269 310 6,700  Level Boston Center
12:08PM 43.0218 -74.2213 276° West  Level FlightAware Approximate
12:08PM 42.7594 -74.0831 319° Northwest 255 293 9,300  Level Boston Center
12:09PM 43.0310 -74.3499 276° West  Level FlightAware Approximate
12:09PM 42.8464 -74.1308 338° Northwest 271 312 11,400  Level Boston Center
12:10PM 43.0333 -74.4790 270° West  Level FlightAware Approximate
12:10PM 42.9292 -74.1728 340° North 333 383 12,400  Level Boston Center
12:11PM 43.0325 -74.2325 337° Northwest 359 413 15,000 2,400 Climbing Boston Center
12:12PM 43.1169 -74.2803 338° Northwest 364 419 17,200 1,800 Climbing Boston Center
12:13PM 43.1914 -74.3225 338° Northwest 364 419 18,600 900 Climbing Boston Center
12:14PM 43.2264 -74.4689 288° West 334 384 19,100 600 Climbing Boston Center
12:15PM 43.2194 -74.6197 266° West 354 407 19,800 840 Climbing Boston Center
12:16PM 43.2144 -74.7733 267° West 385 443 20,800 1,200 Climbing Boston Center
12:17PM 43.2089 -74.9269 267° West 405 466 22,300 1,440 Climbing Boston Center
12:18PM 43.2033 -75.0836 267° West 405 466 23,700 1,200 Climbing Boston Center
12:19PM 43.1983 -75.2058 267° West 405 466 24,700 1,020 Climbing Boston Center
12:20PM 43.1939 -75.3908 268° West 405 466 25,800 900 Climbing Boston Center
12:21PM 43.1819 -75.6853 267° West 423 487 27,300 840 Climbing Cleveland Center
12:22PM 43.1761 -75.8453 267° West 423 487 28,200 900 Climbing Cleveland Center
12:23PM 43.1700 -76.0025 267° West 423 487 29,100 900 Climbing Cleveland Center
12:24PM 43.1656 -76.1567 268° West 423 487 30,100 960 Climbing Cleveland Center
12:25PM 43.1608 -76.3136 268° West 423 487 31,100 960 Climbing Cleveland Center
12:26PM 43.1622 -76.4644 271° West 418 481 32,100 960 Climbing Cleveland Center
12:27PM 43.1592 -76.6156 268° West 406 467 33,100 960 Climbing Cleveland Center
12:28PM 43.1614 -76.7433 271° West 394 453 34,100 960 Climbing Cleveland Center
12:29PM 43.1597 -76.8858 269° West 383 441 35,100 960 Climbing Cleveland Center
12:30PM 43.1600 -77.0253 270° West 378 435 36,100 900 Climbing Cleveland Center
12:31PM 43.1581 -77.1650 269° West 378 435 37,000 660 Climbing Cleveland Center
12:32PM 43.1556 -77.2989 269° West 367 422 37,500 480 Climbing Cleveland Center
12:33PM 43.1550 -77.4328 270° West 362 417 38,000 240 Climbing Cleveland Center
12:34PM 43.1547 -77.5722 270° West 362 417 38,000  Level Cleveland Center
12:35PM 43.1519 -77.7089 268° West 368 423 38,000  Level Cleveland Center
12:36PM 43.1511 -77.8514 270° West 368 423 38,000  Level Cleveland Center
12:37PM 43.1506 -78.0108 270° West 378 435 38,000  Level Cleveland Center
12:38PM 43.1475 -78.1561 268° West 383 441 38,000  Level Cleveland Center
12:39PM 43.1442 -78.3042 268° West 383 441 38,000  Level Cleveland Center
12:40PM 43.1408 -78.4522 268° West 383 441 38,000  Level Cleveland Center
12:42PM 43.1314 -78.7542 268° West 388 447 38,000  Level Cleveland Center
12:43PM 43.1275 -78.9050 268° West 394 453 38,000  Level Cleveland Center
12:45PM 43.1167 -79.0833 265° West 410 472 38,000  Level Toronto Center
12:46PM 43.1000 -79.2500 262° West 410 472 38,000  Level Toronto Center
12:47PM 43.1000 -79.4000 270° West 420 483 38,000  Level Toronto Center
12:48PM 43.1000 -79.5667 270° West 420 483 38,000  Level Toronto Center
12:49PM 43.0833 -79.7167 261° West 420 483 38,000  Level Toronto Center
12:50PM 43.0833 -79.8833 270° West 420 483 38,000  Level Toronto Center
12:51PM 43.0833 -80.0500 270° West 420 483 38,000  Level Toronto Center
12:52PM 43.0667 -80.2333 263° West 430 495 38,000  Level Toronto Center
12:53PM 43.0667 -80.3833 270° West 430 495 38,000  Level Toronto Center
12:54PM 43.0667 -80.5167 270° West 430 495 38,000  Level Toronto Center
12:56PM 43.0589 -80.7707 268° West  Level FlightAware Approximate
12:56PM 43.0333 -80.8667 268° West 430 495 38,000  Level Toronto Center
12:57PM 43.0167 -81.0167 261° West 430 495 38,000  Level Toronto Center
12:58PM 43.0167 -81.1833 270° West 430 495 38,000  Level Toronto Center
12:59PM 43.0167 -81.3667 270° West 430 495 38,000  Level Toronto Center
01:00PM 43.0167 -81.5333 270° West 440 506 38,000  Level Toronto Center
01:01PM 43.0167 -81.6833 270° West 440 506 38,000  Level Toronto Center
01:02PM 43.0167 -81.8500 270° West 440 506 38,000  Level Toronto Center
01:03PM 43.0000 -82.0333 263° West 440 506 38,000  Level Toronto Center
01:04PM 43.0000 -82.1833 270° West 440 506 38,000  Level Toronto Center
01:05PM 43.0000 -82.3500 270° West 440 506 38,000  Level Toronto Center
01:06PM 43.0000 -82.5333 270° West 440 506 38,000  Level Toronto Center
01:07PM 43.0014 -82.6981 271° West 441 507 38,000  Level Cleveland Center
01:08PM 42.9983 -82.8656 269° West 441 507 38,000  Level Cleveland Center
01:09PM 42.9906 -83.0356 266° West 441 507 38,000  Level Cleveland Center
01:10PM 42.9850 -83.2000 267° West 441 507 38,000 -360 Level Cleveland Center
01:11PM 42.9786 -83.3756 267° West 447 514 37,300 -900 Descending Cleveland Center
01:13PM 42.9675 -83.7300 268° West 468 539 35,300 -1,080 Descending Cleveland Center
01:14PM 42.9497 -83.9219 263° West 473 544 34,100 -1,140 Descending Cleveland Center
01:15PM 42.9319 -84.0969 262° West 473 544 33,100 -1,020 Descending Cleveland Center
01:16PM 42.9161 -84.2717 263° West 473 544 32,100 -540 Descending Cleveland Center
01:17PM 42.8961 -84.4606 262° West 466 536 32,000 -60 Descending Chicago Center
01:18PM 42.8747 -84.6719 262° West 470 541 32,000  Level Chicago Center
01:19PM 42.8567 -84.8483 262° West 470 541 32,000 -360 Level Chicago Center
01:20PM 42.8389 -85.0203 262° West 461 531 31,300 -1,200 Descending Chicago Center
01:21PM 42.8217 -85.1847 262° West 444 511 29,600 -1,680 Descending Chicago Center
01:22PM 42.8028 -85.3469 261° West 436 502 27,900 -1,680 Descending Chicago Center
01:23PM 42.7858 -85.5022 262° West 421 484 26,200 -1,680 Descending Chicago Center
01:24PM 42.7583 -85.6528 256° West 411 473 24,500 -1,860 Descending Chicago Center
01:25PM 42.7258 -85.8325 256° West 406 467 22,400 -1,500 Descending Chicago Center
01:26PM 42.6986 -85.9800 256° West 403 464 21,400 -1,020 Descending Chicago Center
01:27PM 42.6733 -86.1236 257° West 393 452 20,400 -720 Descending Chicago Center
01:28PM 42.6469 -86.2661 256° West 389 448 20,000 -240 Descending Chicago Center
01:29PM 42.6200 -86.4053 255° West 381 438 20,000 -1,140 Level Chicago Center
01:31PM 42.5802 -86.5504 256° West  Level FlightAware Approximate
01:32PM 42.5661 -86.6917 256° West 390 449 16,500  Level Chicago Center
01:33PM 42.5239 -86.8631 252° West 399 459 13,700 -2,640 Descending Chicago Center
01:34PM 42.4892 -86.9928 250° West 373 429 11,100 -1,440 Descending Chicago Center
01:35PM 42.4333 -87.2000 250° West 365 420 10,000 -480 Descending Chicago TRACON
01:36PM 42.4000 -87.3167 249° West 363 418 10,000  Level Chicago TRACON
01:37PM 42.3842 -87.3689 248° West 361 415 10,000  Level Chicago Center
01:38PM 42.3475 -87.5022 250° West 359 413 10,000  Level Chicago Center
01:39PM 42.2811 -87.5981 227° Southwest 356 410 10,000  Level Chicago Center
01:40PM 42.1900 -87.6925 218° Southwest 344 396 10,000 -660 Level Chicago Center
01:41PM 42.1236 -87.7619 218° Southwest 305 351 8,700 -1,260 Descending Chicago Center
01:42PM 42.0917 -87.8614 247° West 315 362 7,400 -840 Descending Chicago Center
01:43PM 42.0917 -87.9689 270° West 297 342 7,000 -480 Descending Chicago Center
01:44PM 42.0911 -88.0811 270° West 261 300 6,500 -720 Descending Chicago Center
01:45PM 42.0906 -88.1711 270° West 246 283 5,600 -780 Descending Chicago Center
01:46PM 42.0856 -88.2589 266° West 242 278 4,900 -720 Descending Chicago Center
01:47PM 42.0264 -88.2700 188° South 222 255 4,100 -480 Descending Chicago Center
01:48PM 41.9772 -88.2489 162° South 219 252 4,000 -60 Descending Chicago Center
01:49PM 41.9656 -88.1842 104° East 196 226 4,000 -300 Level Chicago Center
01:50PM 41.9692 -88.0981 87° East 194 223 3,500 -540 Descending Chicago Center